createdAt,value
2023-02-03T00:02:32.230Z,69.45
2023-02-03T00:05:25.260Z,69.28
2023-02-03T00:08:18.810Z,69.44
2023-02-03T00:11:10.922Z,69.55
2023-02-03T00:13:48.255Z,69.63
2023-02-03T00:16:40.437Z,69.72
2023-02-03T00:19:32.676Z,69.61
2023-02-03T00:22:13.476Z,69.52
2023-02-03T00:25:06.681Z,69.45
2023-02-03T00:27:59.111Z,69.69
2023-02-03T00:30:54.096Z,69.46
2023-02-03T00:33:46.425Z,69.65
2023-02-03T00:36:39.046Z,69.65
2023-02-03T00:39:31.672Z,69.71
2023-02-03T00:42:23.791Z,69.37
2023-02-03T00:45:16.150Z,69.59
2023-02-03T00:48:08.609Z,69.58
2023-02-03T00:51:00.761Z,69.68
2023-02-03T00:53:52.867Z,69.35
2023-02-03T00:56:45.012Z,69.07
2023-02-03T00:59:37.189Z,69.00
2023-02-03T01:02:29.363Z,68.86
2023-02-03T01:05:21.743Z,68.86
2023-02-03T01:08:14.963Z,68.80
2023-02-03T01:11:11.305Z,68.59
2023-02-03T01:14:03.445Z,68.49
2023-02-03T01:16:55.775Z,68.31
2023-02-03T01:19:47.859Z,68.50
2023-02-03T01:22:40.368Z,68.52
2023-02-03T01:25:32.444Z,68.19
2023-02-03T01:28:24.620Z,68.39
2023-02-03T01:31:19.299Z,68.41
2023-02-03T01:34:16.294Z,68.31
2023-02-03T01:37:08.430Z,68.25
2023-02-03T01:40:00.514Z,68.43
2023-02-03T01:42:53.237Z,68.34
2023-02-03T01:45:47.048Z,68.29
2023-02-03T01:48:39.462Z,68.31
2023-02-03T01:51:32.774Z,68.02
2023-02-03T01:54:28.027Z,68.31
2023-02-03T01:57:24.080Z,68.28
2023-02-03T02:00:17.331Z,68.06
2023-02-03T02:03:10.937Z,68.22
2023-02-03T02:06:05.804Z,68.25
2023-02-03T02:09:00.759Z,68.23
2023-02-03T02:11:52.999Z,68.34
2023-02-03T02:14:47.133Z,68.25
2023-02-03T02:17:45.051Z,68.23
2023-02-03T02:20:55.585Z,68.05
2023-02-03T02:24:08.769Z,67.91
2023-02-03T02:26:55.912Z,68.10
2023-02-03T02:30:26.448Z,68.23
2023-02-03T02:33:28.845Z,68.11
2023-02-03T02:36:39.846Z,68.17
2023-02-03T02:39:45.228Z,67.81
2023-02-03T02:42:47.754Z,67.51
2023-02-03T02:45:47.054Z,67.37
2023-02-03T02:48:45.833Z,67.34
2023-02-03T02:51:40.654Z,67.23
2023-02-03T02:54:39.542Z,67.04
2023-02-03T02:57:35.704Z,67.11
2023-02-03T03:00:30.882Z,67.09
2023-02-03T03:03:25.361Z,67.23
2023-02-03T03:06:23.508Z,66.99
2023-02-03T03:09:20.395Z,66.93
2023-02-03T03:12:08.659Z,66.70
2023-02-03T03:15:06.375Z,66.78
2023-02-03T03:18:04.468Z,66.89
2023-02-03T03:21:05.951Z,66.94
2023-02-03T03:24:02.803Z,66.82
2023-02-03T03:26:58.524Z,66.93
2023-02-03T03:29:54.548Z,67.03
2023-02-03T03:32:47.397Z,67.02
2023-02-03T03:35:46.787Z,66.97
2023-02-03T03:38:42.160Z,67.00
2023-02-03T03:41:41.819Z,66.94
2023-02-03T03:44:39.210Z,67.02
2023-02-03T03:47:39.069Z,67.06
2023-02-03T03:50:35.538Z,67.06
2023-02-03T03:53:29.963Z,66.89
2023-02-03T03:56:25.648Z,66.55
2023-02-03T03:59:21.946Z,66.73
2023-02-03T04:02:17.193Z,66.83
2023-02-03T04:05:11.686Z,66.41
2023-02-03T04:08:03.937Z,66.46
2023-02-03T04:10:56.075Z,66.52
2023-02-03T04:13:48.224Z,66.58
2023-02-03T04:16:40.334Z,66.45
2023-02-03T04:19:32.594Z,66.49
2023-02-03T04:22:24.839Z,66.20
2023-02-03T04:25:17.198Z,66.14
2023-02-03T04:28:09.983Z,66.16
2023-02-03T04:31:04.305Z,66.21
2023-02-03T04:33:56.551Z,66.25
2023-02-03T04:36:48.673Z,66.36
2023-02-03T04:39:40.790Z,66.28
2023-02-03T04:42:32.964Z,66.13
2023-02-03T04:45:25.169Z,66.38
2023-02-03T04:48:17.419Z,66.23
2023-02-03T04:51:10.434Z,66.37
2023-02-03T04:54:02.482Z,66.48
2023-02-03T04:56:54.656Z,66.42
2023-02-03T04:59:46.779Z,66.73
2023-02-03T05:02:38.933Z,66.56
2023-02-03T05:05:31.103Z,66.60
2023-02-03T05:08:23.387Z,66.67
2023-02-03T05:11:15.468Z,66.59
2023-02-03T05:14:07.864Z,66.46
2023-02-03T05:17:00.031Z,66.64
2023-02-03T05:19:52.119Z,66.63
2023-02-03T05:22:44.255Z,66.92
2023-02-03T05:25:36.392Z,66.84
2023-02-03T05:28:28.696Z,66.76
2023-02-03T05:31:11.037Z,66.86
2023-02-03T05:34:03.142Z,66.85
2023-02-03T05:36:55.298Z,66.84
2023-02-03T05:39:47.374Z,66.82
2023-02-03T05:42:39.412Z,66.97
2023-02-03T05:45:31.532Z,66.94
2023-02-03T05:48:23.694Z,66.94
2023-02-03T05:51:15.952Z,66.69
2023-02-03T05:54:08.823Z,67.00
2023-02-03T05:57:00.957Z,67.02
2023-02-03T05:59:53.093Z,67.25
2023-02-03T06:02:45.186Z,67.01
2023-02-03T06:05:40.896Z,66.87
2023-02-03T06:08:32.972Z,67.08
2023-02-03T06:11:25.424Z,67.09
2023-02-03T06:14:17.510Z,67.44
2023-02-03T06:17:09.733Z,67.57
2023-02-03T06:20:02.458Z,67.67
2023-02-03T06:22:54.686Z,67.61
2023-02-03T06:25:46.972Z,67.82
2023-02-03T06:28:39.191Z,67.78
2023-02-03T06:31:31.383Z,67.51
2023-02-03T06:34:23.593Z,67.57
2023-02-03T06:37:15.775Z,67.54
2023-02-03T06:40:10.809Z,67.49
2023-02-03T06:43:02.917Z,67.52
2023-02-03T06:45:55.249Z,67.71
2023-02-03T06:48:47.442Z,67.70
2023-02-03T06:51:39.808Z,67.75
2023-02-03T06:54:31.965Z,67.72
2023-02-03T06:57:24.070Z,67.86
2023-02-03T07:00:19.755Z,67.55
2023-02-03T07:03:11.896Z,67.66
2023-02-03T07:06:04.021Z,67.98
2023-02-03T07:08:56.497Z,67.43
2023-02-03T07:11:48.662Z,67.44
2023-02-03T07:14:40.708Z,67.67
2023-02-03T07:17:32.962Z,67.55
2023-02-03T07:20:26.170Z,67.34
2023-02-03T07:23:18.707Z,67.65
2023-02-03T07:26:11.919Z,67.48
2023-02-03T07:29:04.204Z,67.69
2023-02-03T07:31:57.061Z,67.56
2023-02-03T07:34:49.192Z,67.44
2023-02-03T07:37:41.245Z,67.56
2023-02-03T07:40:33.477Z,67.71
2023-02-03T07:43:25.873Z,67.90
2023-02-03T07:46:18.263Z,67.59
2023-02-03T07:49:10.822Z,67.27
2023-02-03T07:52:03.014Z,67.17
2023-02-03T07:54:55.111Z,66.93
2023-02-03T07:57:49.638Z,67.24
2023-02-03T08:00:42.008Z,67.27
2023-02-03T08:03:34.156Z,67.19
2023-02-03T08:06:26.357Z,67.04
2023-02-03T08:09:18.548Z,67.07
2023-02-03T08:12:10.755Z,67.10
2023-02-03T08:15:03.014Z,66.95
2023-02-03T08:17:55.188Z,67.12
2023-02-03T08:20:47.457Z,66.40
2023-02-03T08:23:39.711Z,66.37
2023-02-03T08:26:31.964Z,66.57
2023-02-03T08:29:24.377Z,66.39
2023-02-03T08:32:19.662Z,66.25
2023-02-03T08:35:12.176Z,66.19
2023-02-03T08:38:04.450Z,66.03
2023-02-03T08:40:56.517Z,65.99
2023-02-03T08:43:49.463Z,66.22
2023-02-03T08:46:44.163Z,65.65
2023-02-03T08:49:39.271Z,65.82
2023-02-03T08:52:31.668Z,65.56
2023-02-03T08:55:24.590Z,65.59
2023-02-03T08:58:16.768Z,65.62
2023-02-03T09:01:13.567Z,65.92
2023-02-03T09:04:08.265Z,66.08
2023-02-03T09:07:00.871Z,66.31
2023-02-03T09:09:53.036Z,66.90
2023-02-03T09:12:45.067Z,67.17
2023-02-03T09:15:38.016Z,67.57
2023-02-03T09:18:15.809Z,68.38
2023-02-03T09:21:13.910Z,68.84
2023-02-03T09:24:13.091Z,69.26
2023-02-03T09:27:05.352Z,69.51
2023-02-03T09:29:58.501Z,69.88
2023-02-03T09:32:54.375Z,70.51
2023-02-03T09:35:54.588Z,70.88
2023-02-03T09:38:47.045Z,71.48
2023-02-03T09:41:52.523Z,71.91
2023-02-03T09:44:50.120Z,71.95
2023-02-03T09:47:29.987Z,72.35
2023-02-03T09:50:25.230Z,72.09
2023-02-03T09:53:30.044Z,72.68
2023-02-03T09:56:28.359Z,73.03
2023-02-03T09:59:20.960Z,73.23
2023-02-03T10:02:29.911Z,73.71
2023-02-03T10:05:28.809Z,74.22
2023-02-03T10:08:31.560Z,74.35
2023-02-03T10:11:39.392Z,74.78
2023-02-03T10:14:46.289Z,74.96
2023-02-03T10:17:41.890Z,75.36
2023-02-03T10:20:40.455Z,75.39
2023-02-03T10:23:35.909Z,75.24
2023-02-03T10:26:30.001Z,75.69
2023-02-03T10:29:22.320Z,75.53
2023-02-03T10:32:15.928Z,75.82
2023-02-03T10:35:14.097Z,76.24
2023-02-03T10:38:14.723Z,76.14
2023-02-03T10:41:07.671Z,76.27
2023-02-03T10:44:03.660Z,76.39
2023-02-03T10:46:56.179Z,76.56
2023-02-03T10:49:31.052Z,76.44
2023-02-03T10:52:32.658Z,76.56
2023-02-03T10:55:41.215Z,76.54
2023-02-03T10:58:34.812Z,76.73
2023-02-03T11:01:29.215Z,77.14
2023-02-03T11:04:28.065Z,77.49
2023-02-03T11:07:28.371Z,77.68
2023-02-03T11:10:40.866Z,77.92
2023-02-03T11:13:33.092Z,77.70
2023-02-03T11:16:26.205Z,77.47
2023-02-03T11:19:22.679Z,77.59
2023-02-03T11:22:36.008Z,77.86
2023-02-03T11:25:38.036Z,78.09
2023-02-03T11:28:31.280Z,78.10
2023-02-03T11:31:27.445Z,78.11
2023-02-03T11:34:24.279Z,78.18
2023-02-03T11:37:33.006Z,78.15
2023-02-03T11:40:30.579Z,78.35
2023-02-03T11:43:25.384Z,78.59
2023-02-03T11:46:18.261Z,78.77
2023-02-03T11:49:29.243Z,78.51
2023-02-03T11:53:06.351Z,78.18
2023-02-03T11:56:17.508Z,78.87
2023-02-03T11:59:30.126Z,78.57
2023-02-03T12:02:48.053Z,78.83
2023-02-03T12:06:03.994Z,79.08
2023-02-03T12:09:08.422Z,79.33
2023-02-03T12:12:17.662Z,79.13
2023-02-03T12:15:26.075Z,79.37
2023-02-03T12:18:30.253Z,79.35
2023-02-03T12:21:38.253Z,79.05
2023-02-03T12:24:39.262Z,79.28
2023-02-03T12:27:42.908Z,79.39
2023-02-03T12:30:40.287Z,79.52
2023-02-03T12:33:36.688Z,79.45
2023-02-03T12:36:34.896Z,79.56
2023-02-03T12:39:31.706Z,79.81
2023-02-03T12:42:29.357Z,79.75
2023-02-03T12:45:25.521Z,79.87
2023-02-03T12:48:23.160Z,79.99
2023-02-03T12:51:22.572Z,79.99
2023-02-03T12:54:30.315Z,79.65
2023-02-03T12:57:28.379Z,79.87
2023-02-03T13:00:40.895Z,80.00
2023-02-03T13:03:56.199Z,79.91
2023-02-03T13:06:55.672Z,79.73
2023-02-03T13:09:56.081Z,79.97
2023-02-03T13:12:52.490Z,79.91
2023-02-03T13:15:47.552Z,79.80
2023-02-03T13:18:43.255Z,79.75
2023-02-03T13:21:17.614Z,79.50
2023-02-03T13:24:06.055Z,79.55
2023-02-03T13:27:14.536Z,79.31
2023-02-03T13:30:21.610Z,79.50
2023-02-03T13:33:48.188Z,79.62
2023-02-03T13:36:59.902Z,79.41
2023-02-03T13:40:04.591Z,79.38
2023-02-03T13:42:59.634Z,79.66
2023-02-03T13:45:53.694Z,79.87
2023-02-03T13:48:45.507Z,80.03
2023-02-03T13:51:46.001Z,80.13
2023-02-03T13:54:44.509Z,80.08
2023-02-03T13:57:39.053Z,80.11
2023-02-03T14:01:05.191Z,80.18
2023-02-03T14:03:58.098Z,80.19
2023-02-03T14:07:01.266Z,79.98
2023-02-03T14:09:43.002Z,79.95
2023-02-03T14:12:37.251Z,80.19
2023-02-03T14:15:39.598Z,80.04
2023-02-03T14:18:44.885Z,80.23
2023-02-03T14:21:47.307Z,80.30
2023-02-03T14:24:42.881Z,80.30
2023-02-03T14:27:35.400Z,80.50
2023-02-03T14:30:28.179Z,80.37
2023-02-03T14:33:31.788Z,80.32
2023-02-03T14:36:37.975Z,80.13
2023-02-03T14:40:00.918Z,80.14
2023-02-03T14:43:11.032Z,80.51
2023-02-03T14:46:30.053Z,80.67
2023-02-03T14:49:59.793Z,80.86
2023-02-03T14:53:11.065Z,81.01
2023-02-03T14:56:16.927Z,80.93
2023-02-03T14:59:12.931Z,81.02
2023-02-03T15:02:20.895Z,80.86
2023-02-03T15:05:39.600Z,80.64
2023-02-03T15:08:35.987Z,80.89
2023-02-03T15:11:33.703Z,80.90
2023-02-03T15:14:28.583Z,80.86
2023-02-03T15:17:27.479Z,80.89
2023-02-03T15:20:28.691Z,81.03
2023-02-03T15:23:23.916Z,80.86
2023-02-03T15:26:18.550Z,80.65
2023-02-03T15:29:24.932Z,80.72
2023-02-03T15:32:23.526Z,80.96
2023-02-03T15:35:18.763Z,80.70
2023-02-03T15:38:16.186Z,81.06
2023-02-03T15:41:12.535Z,81.06
2023-02-03T15:44:09.634Z,81.13
2023-02-03T15:47:03.805Z,81.27
2023-02-03T15:49:58.338Z,81.19
2023-02-03T15:52:54.390Z,81.38
2023-02-03T15:55:49.244Z,81.34
2023-02-03T15:58:36.323Z,81.39
2023-02-03T16:01:29.084Z,81.53
2023-02-03T16:04:22.650Z,81.71
2023-02-03T16:07:22.381Z,81.51
2023-02-03T16:10:30.027Z,81.57
2023-02-03T16:13:24.820Z,81.89
2023-02-03T16:16:21.616Z,81.79
2023-02-03T16:19:18.638Z,81.89
2023-02-03T16:22:32.480Z,81.75
2023-02-03T16:25:27.281Z,81.77
2023-02-03T16:28:38.232Z,81.93
2023-02-03T16:31:48.271Z,81.96
2023-02-03T16:34:58.003Z,82.15
2023-02-03T16:38:07.646Z,81.98
2023-02-03T16:40:59.930Z,81.94
2023-02-03T16:44:09.320Z,81.99
2023-02-03T16:47:18.796Z,81.87
2023-02-03T16:50:38.194Z,81.94
2023-02-03T16:53:33.284Z,81.89
2023-02-03T16:56:23.829Z,81.92
2023-02-03T16:59:16.442Z,81.89
2023-02-03T17:02:12.504Z,81.98
2023-02-03T17:05:04.760Z,81.91
2023-02-03T17:07:56.888Z,81.94
2023-02-03T17:10:49.716Z,82.05
2023-02-03T17:13:42.626Z,82.06
2023-02-03T17:16:34.886Z,81.98
2023-02-03T17:19:27.177Z,82.07
2023-02-03T17:22:19.441Z,82.05
2023-02-03T17:24:53.894Z,82.09
2023-02-03T17:27:46.224Z,81.88
2023-02-03T17:30:38.881Z,81.73
2023-02-03T17:33:13.581Z,81.73
2023-02-03T17:36:09.299Z,81.53
2023-02-03T17:54:51.854Z,81.73
2023-02-03T17:57:43.958Z,81.70
2023-02-03T18:00:21.718Z,81.77
2023-02-03T18:03:13.769Z,81.85
2023-02-03T18:06:06.334Z,81.80
2023-02-03T18:09:01.398Z,81.36
2023-02-03T18:11:53.659Z,81.37
2023-02-03T18:14:45.957Z,81.47
2023-02-03T18:17:38.255Z,81.34
2023-02-03T18:20:16.057Z,81.40
2023-02-03T18:23:08.332Z,81.28
2023-02-03T18:26:01.296Z,81.36
2023-02-03T18:28:55.768Z,81.42
2023-02-03T18:31:48.223Z,81.49
2023-02-03T18:34:30.588Z,81.43
2023-02-03T18:37:06.819Z,81.39
2023-02-03T18:39:59.100Z,81.37
2023-02-03T18:42:51.444Z,81.44
2023-02-03T18:45:43.715Z,81.46
2023-02-03T18:48:35.823Z,81.32
2023-02-03T18:51:28.894Z,81.37
2023-02-03T18:54:21.931Z,81.30
2023-02-03T18:57:15.790Z,81.34
2023-02-03T19:00:09.878Z,81.29
2023-02-03T19:03:02.099Z,81.29
2023-02-03T19:05:54.224Z,81.17
2023-02-03T19:08:46.840Z,81.26
2023-02-03T19:11:39.138Z,81.35
2023-02-03T19:14:32.622Z,80.82
2023-02-03T19:17:24.743Z,80.99
2023-02-03T19:20:17.336Z,80.60
2023-02-03T19:23:09.595Z,80.88
2023-02-03T19:26:02.724Z,80.78
2023-02-03T19:28:56.006Z,80.71
2023-02-03T19:31:48.808Z,80.98
2023-02-03T19:34:41.284Z,80.99
2023-02-03T19:37:18.520Z,80.98
2023-02-03T19:40:12.686Z,80.87
2023-02-03T19:43:04.193Z,80.74
2023-02-03T19:45:56.590Z,80.69
2023-02-03T19:48:49.727Z,80.86
2023-02-03T19:51:42.943Z,80.63
2023-02-03T19:54:35.835Z,80.73
2023-02-03T19:57:28.425Z,80.61
2023-02-03T20:00:22.111Z,80.58
2023-02-03T20:03:14.578Z,80.72
2023-02-03T20:06:07.489Z,80.73
2023-02-03T20:09:00.223Z,80.75
2023-02-03T20:11:52.795Z,80.78
2023-02-03T20:14:45.213Z,80.80
2023-02-03T20:17:37.875Z,80.96
2023-02-03T20:20:30.588Z,81.07
2023-02-03T20:23:22.916Z,81.09
2023-02-03T20:26:15.970Z,81.09
2023-02-03T20:29:08.544Z,81.07
2023-02-03T20:31:46.300Z,81.06
2023-02-03T20:34:38.865Z,81.27
2023-02-03T20:37:31.654Z,81.26
2023-02-03T20:40:26.855Z,81.45
2023-02-03T20:43:21.169Z,81.60
2023-02-03T20:45:58.514Z,81.55
2023-02-03T20:48:50.675Z,81.60
2023-02-03T20:51:43.132Z,81.64
2023-02-03T20:54:35.211Z,81.63
2023-02-03T20:57:28.178Z,81.62
2023-02-03T21:00:23.528Z,81.62
2023-02-03T21:03:35.356Z,81.70
2023-02-03T21:06:29.199Z,81.61
2023-02-03T21:09:24.128Z,81.66
2023-02-03T21:12:15.231Z,81.69
2023-02-03T21:15:31.273Z,81.64
2023-02-03T21:18:34.054Z,81.69
2023-02-03T21:21:34.956Z,81.66
2023-02-03T21:24:35.484Z,81.90
2023-02-03T21:27:30.683Z,81.86
2023-02-03T21:30:33.213Z,81.76
2023-02-03T21:33:29.775Z,81.79
2023-02-03T21:36:14.653Z,81.90
2023-02-03T21:39:30.803Z,81.92
2023-02-03T21:42:42.339Z,82.02
2023-02-03T21:45:42.444Z,81.91
2023-02-03T21:48:38.302Z,81.73
2023-02-03T21:51:34.786Z,81.78
2023-02-03T21:54:30.382Z,82.00
2023-02-03T21:57:23.060Z,81.89
2023-02-03T22:00:42.798Z,82.05
2023-02-03T22:03:39.654Z,81.91
2023-02-03T22:06:42.902Z,82.16
2023-02-03T22:09:34.940Z,81.99
2023-02-03T22:12:26.970Z,82.10
2023-02-03T22:15:03.924Z,82.23
2023-02-03T22:17:56.017Z,82.13
2023-02-03T22:20:36.882Z,82.18
2023-02-03T22:23:29.085Z,82.13
2023-02-03T22:26:22.100Z,82.09
2023-02-03T22:29:14.389Z,81.97
2023-02-03T22:32:06.755Z,81.96
2023-02-03T22:34:58.697Z,82.18
2023-02-03T22:37:52.642Z,82.21
2023-02-03T22:40:44.817Z,82.22
2023-02-03T22:43:36.948Z,82.29
2023-02-03T22:46:29.138Z,82.24
2023-02-03T22:49:21.276Z,82.30
2023-02-03T22:51:58.170Z,82.35
2023-02-03T22:54:50.248Z,82.12
2023-02-03T22:57:42.379Z,82.23
2023-02-03T23:00:35.315Z,82.17
2023-02-03T23:03:27.656Z,82.22
2023-02-03T23:06:20.063Z,82.20
2023-02-03T23:09:12.212Z,82.33
2023-02-03T23:11:54.651Z,82.36
2023-02-03T23:14:46.682Z,82.47
2023-02-03T23:17:21.839Z,82.32
2023-02-03T23:20:16.468Z,82.44
2023-02-03T23:23:08.622Z,82.58
2023-02-03T23:26:00.841Z,82.48
2023-02-03T23:28:53.152Z,82.25
2023-02-03T23:31:45.483Z,82.28
2023-02-03T23:34:55.654Z,82.43
2023-02-03T23:37:47.964Z,82.47
2023-02-03T23:40:40.059Z,82.49
2023-02-03T23:43:32.157Z,82.49
2023-02-03T23:46:24.370Z,82.59
2023-02-03T23:49:16.761Z,82.46
2023-02-03T23:52:09.030Z,82.56
2023-02-03T23:55:01.389Z,82.39
2023-02-03T23:57:53.475Z,82.23
